createdAt,value
2023-08-08T00:01:15.900Z,48.77
2023-08-08T00:03:46.807Z,48.75
2023-08-08T00:06:17.584Z,48.70
2023-08-08T00:08:48.314Z,48.82
2023-08-08T00:11:19.133Z,48.76
2023-08-08T00:13:49.861Z,48.74
2023-08-08T00:16:21.103Z,48.60
2023-08-08T00:18:54.637Z,48.77
2023-08-08T00:21:25.342Z,48.68
2023-08-08T00:23:56.316Z,48.83
2023-08-08T00:26:27.039Z,48.77
2023-08-08T00:28:57.929Z,48.65
2023-08-08T00:31:28.632Z,48.75
2023-08-08T00:33:59.399Z,48.80
2023-08-08T00:36:30.090Z,48.84
2023-08-08T00:39:00.947Z,48.74
2023-08-08T00:41:31.933Z,48.80
2023-08-08T00:44:02.772Z,48.63
2023-08-08T00:46:33.769Z,48.74
2023-08-08T00:49:04.679Z,48.88
2023-08-08T00:51:36.428Z,48.79
2023-08-08T00:54:07.458Z,48.91
2023-08-08T00:56:38.695Z,48.84
2023-08-08T00:59:13.533Z,48.99
2023-08-08T01:01:44.800Z,48.97
2023-08-08T01:04:15.785Z,48.97
2023-08-08T01:06:56.727Z,49.05
2023-08-08T01:09:32.398Z,49.00
2023-08-08T01:12:04.933Z,49.04
2023-08-08T01:14:36.907Z,49.03
2023-08-08T01:17:08.738Z,49.17
2023-08-08T01:19:40.172Z,49.01
2023-08-08T01:22:16.866Z,48.94
2023-08-08T01:24:47.715Z,49.12
2023-08-08T01:27:19.382Z,49.00
2023-08-08T01:29:50.050Z,48.99
2023-08-08T01:32:20.868Z,49.16
2023-08-08T01:34:51.888Z,48.88
2023-08-08T01:37:30.336Z,48.94
2023-08-08T01:40:02.800Z,48.84
2023-08-08T01:42:34.229Z,48.94
2023-08-08T01:45:06.212Z,48.96
2023-08-08T01:47:37.625Z,48.97
2023-08-08T01:50:10.343Z,48.88
2023-08-08T01:52:41.264Z,48.82
2023-08-08T01:55:13.750Z,49.08
2023-08-08T01:57:44.956Z,48.96
2023-08-08T02:00:16.402Z,49.03
2023-08-08T02:02:47.723Z,48.86
2023-08-08T02:05:18.661Z,48.78
2023-08-08T02:07:49.819Z,48.86
2023-08-08T02:10:20.788Z,48.99
2023-08-08T02:12:51.420Z,48.96
2023-08-08T02:15:22.125Z,48.72
2023-08-08T02:17:53.927Z,49.03
2023-08-08T02:20:24.620Z,48.86
2023-08-08T02:22:55.629Z,48.81
2023-08-08T02:25:26.379Z,48.82
2023-08-08T02:27:57.836Z,48.84
2023-08-08T02:30:28.498Z,49.00
2023-08-08T02:32:59.495Z,48.84
2023-08-08T02:35:30.958Z,48.91
2023-08-08T02:38:01.708Z,48.78
2023-08-08T02:40:33.604Z,48.88
2023-08-08T02:43:04.738Z,48.81
2023-08-08T02:45:35.499Z,49.05
2023-08-08T02:48:07.633Z,49.04
2023-08-08T02:50:38.434Z,48.85
2023-08-08T02:53:09.546Z,48.97
2023-08-08T02:55:41.328Z,48.95
2023-08-08T02:58:12.032Z,48.88
2023-08-08T03:00:42.857Z,48.90
2023-08-08T03:03:14.368Z,48.75
2023-08-08T03:05:46.199Z,48.85
2023-08-08T03:08:17.043Z,48.87
2023-08-08T03:10:47.923Z,48.96
2023-08-08T03:13:21.012Z,48.78
2023-08-08T03:15:52.264Z,48.67
2023-08-08T03:18:24.158Z,48.67
2023-08-08T03:20:55.258Z,48.77
2023-08-08T03:23:25.987Z,48.91
2023-08-08T03:25:57.622Z,48.74
2023-08-08T03:28:28.412Z,48.86
2023-08-08T03:30:59.095Z,48.64
2023-08-08T03:33:30.243Z,48.77
2023-08-08T03:36:01.053Z,48.81
2023-08-08T03:38:32.640Z,48.85
2023-08-08T03:41:04.082Z,48.88
2023-08-08T03:43:35.126Z,48.69
2023-08-08T03:46:05.833Z,48.71
2023-08-08T03:48:36.830Z,48.91
2023-08-08T03:51:08.067Z,48.73
2023-08-08T03:53:38.786Z,48.97
2023-08-08T03:56:09.842Z,48.94
2023-08-08T03:58:41.372Z,48.95
2023-08-08T04:01:12.315Z,49.03
2023-08-08T04:03:43.106Z,48.74
2023-08-08T04:06:14.124Z,48.88
2023-08-08T04:08:44.976Z,48.94
2023-08-08T04:11:15.685Z,48.93
2023-08-08T04:13:46.370Z,48.92
2023-08-08T04:16:17.184Z,49.10
2023-08-08T04:18:48.128Z,49.22
2023-08-08T04:21:18.848Z,49.12
2023-08-08T04:23:49.606Z,49.09
2023-08-08T04:26:20.611Z,49.01
2023-08-08T04:28:51.580Z,48.90
2023-08-08T04:31:25.708Z,48.78
2023-08-08T04:34:02.313Z,48.62
2023-08-08T04:36:33.500Z,48.73
2023-08-08T04:39:04.598Z,48.59
2023-08-08T04:41:35.252Z,48.70
2023-08-08T04:44:06.302Z,48.54
2023-08-08T04:46:37.472Z,48.61
2023-08-08T04:49:08.651Z,48.47
2023-08-08T04:51:40.574Z,48.74
2023-08-08T04:54:11.266Z,48.53
2023-08-08T04:56:42.016Z,48.50
2023-08-08T04:59:13.101Z,48.44
2023-08-08T05:01:43.801Z,48.39
2023-08-08T05:04:14.757Z,48.34
2023-08-08T05:06:45.531Z,48.19
2023-08-08T05:09:17.010Z,48.23
2023-08-08T05:11:48.040Z,48.23
2023-08-08T05:14:18.902Z,48.18
2023-08-08T05:16:49.629Z,48.22
2023-08-08T05:19:20.489Z,48.28
2023-08-08T05:21:52.674Z,48.23
2023-08-08T05:24:23.961Z,48.15
2023-08-08T05:26:54.907Z,47.98
2023-08-08T05:29:25.704Z,48.18
2023-08-08T05:31:56.505Z,48.03
2023-08-08T05:34:27.446Z,48.03
2023-08-08T05:37:14.510Z,48.03
2023-08-08T05:39:48.347Z,47.99
2023-08-08T05:42:19.228Z,48.09
2023-08-08T05:44:50.157Z,48.23
2023-08-08T05:47:20.872Z,48.03
2023-08-08T05:49:51.952Z,48.04
2023-08-08T05:52:23.136Z,48.14
2023-08-08T05:54:53.857Z,48.31
2023-08-08T05:57:24.667Z,47.95
2023-08-08T05:59:55.622Z,47.94
2023-08-08T06:02:26.552Z,48.20
2023-08-08T06:04:57.288Z,48.18
2023-08-08T06:07:28.259Z,47.99
2023-08-08T06:09:59.084Z,48.01
2023-08-08T06:12:30.112Z,47.93
2023-08-08T06:15:00.812Z,47.81
2023-08-08T06:17:32.270Z,47.96
2023-08-08T06:20:03.432Z,47.92
2023-08-08T06:22:34.391Z,47.84
2023-08-08T06:25:05.946Z,47.85
2023-08-08T06:27:36.704Z,48.04
2023-08-08T06:30:10.606Z,47.84
2023-08-08T06:32:41.618Z,47.75
2023-08-08T06:35:13.601Z,47.93
2023-08-08T06:37:44.735Z,48.16
2023-08-08T06:40:16.761Z,47.73
2023-08-08T06:42:47.584Z,47.94
2023-08-08T06:45:18.566Z,47.94
2023-08-08T06:47:50.132Z,48.10
2023-08-08T06:50:21.494Z,47.95
2023-08-08T06:52:52.376Z,47.92
2023-08-08T06:55:23.316Z,47.81
2023-08-08T06:57:54.436Z,47.53
2023-08-08T07:00:25.594Z,47.62
2023-08-08T07:02:56.452Z,47.70
2023-08-08T07:05:27.860Z,47.65
2023-08-08T07:07:58.609Z,47.61
2023-08-08T07:10:30.848Z,47.57
2023-08-08T07:13:01.662Z,47.75
2023-08-08T07:15:32.927Z,47.67
2023-08-08T07:18:03.912Z,47.63
2023-08-08T07:20:34.719Z,47.52
2023-08-08T07:23:06.028Z,47.62
2023-08-08T07:25:36.902Z,47.60
2023-08-08T07:28:08.429Z,47.52
2023-08-08T07:30:39.368Z,47.53
2023-08-08T07:33:10.912Z,47.53
2023-08-08T07:35:41.874Z,47.66
2023-08-08T07:38:12.714Z,47.59
2023-08-08T07:40:43.457Z,47.67
2023-08-08T07:43:14.508Z,47.67
2023-08-08T07:45:45.451Z,47.70
2023-08-08T07:48:16.888Z,47.68
2023-08-08T07:50:47.557Z,47.68
2023-08-08T07:53:18.450Z,47.67
2023-08-08T07:55:49.222Z,47.63
2023-08-08T07:58:20.767Z,47.63
2023-08-08T08:00:53.279Z,47.64
2023-08-08T08:03:24.386Z,47.60
2023-08-08T08:05:55.325Z,47.67
2023-08-08T08:08:26.314Z,47.82
2023-08-08T08:10:57.017Z,47.80
2023-08-08T08:13:27.736Z,47.77
2023-08-08T08:15:58.600Z,47.76
2023-08-08T08:18:30.145Z,47.78
2023-08-08T08:21:01.178Z,47.65
2023-08-08T08:23:33.047Z,47.89
2023-08-08T08:26:04.016Z,47.72
2023-08-08T08:28:34.850Z,47.59
2023-08-08T08:31:10.349Z,47.74
2023-08-08T08:33:41.425Z,47.81
2023-08-08T08:36:14.295Z,47.66
2023-08-08T08:38:45.662Z,47.89
2023-08-08T08:41:19.942Z,47.78
2023-08-08T08:43:52.180Z,47.71
2023-08-08T08:46:24.409Z,47.61
2023-08-08T08:48:57.594Z,47.68
2023-08-08T08:51:28.669Z,47.96
2023-08-08T08:54:01.154Z,47.72
2023-08-08T08:56:33.963Z,47.76
2023-08-08T08:59:06.543Z,47.45
2023-08-08T09:01:37.749Z,47.55
2023-08-08T09:04:10.317Z,47.56
2023-08-08T09:06:41.629Z,47.51
2023-08-08T09:09:16.962Z,47.66
2023-08-08T09:11:50.256Z,47.51
2023-08-08T09:14:22.981Z,47.63
2023-08-08T09:16:55.757Z,47.40
2023-08-08T09:19:27.410Z,47.57
2023-08-08T09:21:58.761Z,47.22
2023-08-08T09:24:29.851Z,47.29
2023-08-08T09:27:02.119Z,47.37
2023-08-08T09:29:33.161Z,47.39
2023-08-08T09:32:07.215Z,47.27
2023-08-08T09:34:38.621Z,47.36
2023-08-08T09:37:11.579Z,47.16
2023-08-08T09:39:42.718Z,47.20
2023-08-08T09:42:13.555Z,47.28
2023-08-08T09:44:46.532Z,47.24
2023-08-08T09:47:18.821Z,47.37
2023-08-08T09:49:50.682Z,47.19
2023-08-08T09:52:22.983Z,47.32
2023-08-08T09:54:54.832Z,47.39
2023-08-08T09:57:27.270Z,47.47
2023-08-08T09:59:59.812Z,47.37
2023-08-08T10:02:32.402Z,47.33
2023-08-08T10:05:03.554Z,47.31
2023-08-08T10:07:34.597Z,47.45
2023-08-08T10:10:05.912Z,47.44
2023-08-08T10:12:38.462Z,47.30
2023-08-08T10:15:12.473Z,47.32
2023-08-08T10:17:44.016Z,47.24
2023-08-08T10:20:18.757Z,47.24
2023-08-08T10:22:52.555Z,47.44
2023-08-08T10:25:24.832Z,47.45
2023-08-08T10:28:24.060Z,47.25
2023-08-08T10:30:59.659Z,47.30
2023-08-08T10:33:29.901Z,47.37
2023-08-08T10:36:08.087Z,47.56
2023-08-08T10:38:47.713Z,47.42
2023-08-08T10:41:21.423Z,47.11
2023-08-08T10:43:52.853Z,46.91
2023-08-08T10:46:33.927Z,47.18
2023-08-08T10:49:07.561Z,47.00
2023-08-08T10:51:45.199Z,47.03
2023-08-08T10:54:18.653Z,46.90
2023-08-08T10:56:54.355Z,47.13
2023-08-08T10:59:27.924Z,47.04
2023-08-08T11:01:58.920Z,46.98
2023-08-08T11:04:31.253Z,46.99
2023-08-08T11:07:02.242Z,47.01
2023-08-08T11:09:33.106Z,47.03
2023-08-08T11:12:04.214Z,46.93
2023-08-08T11:14:35.548Z,47.10
2023-08-08T11:17:07.006Z,46.93
2023-08-08T11:19:44.260Z,47.01
2023-08-08T11:22:15.515Z,46.93
2023-08-08T11:24:46.645Z,46.94
2023-08-08T11:27:42.653Z,47.11
2023-08-08T11:30:11.219Z,46.93
2023-08-08T11:32:42.815Z,46.99
2023-08-08T11:35:14.384Z,47.06
2023-08-08T11:37:45.877Z,47.09
2023-08-08T11:40:18.174Z,47.15
2023-08-08T11:42:51.669Z,47.16
2023-08-08T11:45:23.495Z,46.97
2023-08-08T11:47:55.233Z,46.92
2023-08-08T11:50:28.683Z,47.32
2023-08-08T11:52:59.870Z,47.17
2023-08-08T11:58:06.846Z,47.03
2023-08-08T12:00:38.979Z,47.23
2023-08-08T12:03:10.761Z,46.87
2023-08-08T12:05:41.943Z,47.21
2023-08-08T12:08:13.706Z,46.98
2023-08-08T12:10:54.421Z,47.07
2023-08-08T12:13:27.001Z,47.06
2023-08-08T12:18:35.082Z,47.11
2023-08-08T12:21:05.923Z,47.17
2023-08-08T12:23:38.131Z,47.15
2023-08-08T12:26:10.034Z,47.07
2023-08-08T12:28:40.873Z,47.12
2023-08-08T12:31:11.703Z,47.07
2023-08-08T12:33:43.026Z,47.07
2023-08-08T12:36:15.274Z,47.02
2023-08-08T12:38:47.360Z,47.25
2023-08-08T12:41:18.174Z,47.11
2023-08-08T12:43:48.931Z,47.13
2023-08-08T12:46:19.744Z,47.27
2023-08-08T12:48:50.480Z,47.21
2023-08-08T12:51:21.344Z,47.39
2023-08-08T12:53:52.803Z,47.19
2023-08-08T12:56:23.510Z,47.22
2023-08-08T12:58:54.283Z,47.37
2023-08-08T13:01:25.808Z,47.30
2023-08-08T13:06:34.162Z,47.38
2023-08-08T13:09:07.042Z,47.40
2023-08-08T13:11:39.628Z,47.40
2023-08-08T13:14:10.496Z,47.39
2023-08-08T13:16:41.942Z,47.47
2023-08-08T13:19:13.052Z,47.25
2023-08-08T13:21:43.843Z,47.20
2023-08-08T13:24:15.358Z,47.11
2023-08-08T13:26:47.242Z,47.11
2023-08-08T13:29:18.283Z,47.25
2023-08-08T13:31:49.103Z,47.21
2023-08-08T13:34:20.265Z,47.31
2023-08-08T13:36:51.336Z,47.32
2023-08-08T13:39:22.176Z,47.30
2023-08-08T13:41:52.935Z,47.35
2023-08-08T13:44:23.808Z,47.38
2023-08-08T13:46:54.877Z,47.15
2023-08-08T13:49:27.599Z,47.32
2023-08-08T13:51:58.345Z,47.23
2023-08-08T13:54:29.188Z,47.31
2023-08-08T13:57:00.078Z,47.14
2023-08-08T13:59:31.100Z,47.12
2023-08-08T14:02:02.336Z,47.06
2023-08-08T14:04:33.535Z,47.03
2023-08-08T14:07:04.276Z,47.16
2023-08-08T14:09:35.161Z,46.88
2023-08-08T14:12:06.870Z,46.84
2023-08-08T14:14:37.655Z,47.09
2023-08-08T14:17:08.593Z,46.96
2023-08-08T14:19:39.516Z,47.04
2023-08-08T14:22:11.705Z,46.95
2023-08-08T14:24:43.094Z,46.83
2023-08-08T14:27:14.158Z,46.72
2023-08-08T14:29:45.131Z,46.52
2023-08-08T14:32:16.279Z,46.63
2023-08-08T14:34:47.315Z,46.66
2023-08-08T14:37:18.141Z,46.61
2023-08-08T14:39:49.380Z,46.63
2023-08-08T14:42:20.501Z,46.60
2023-08-08T14:44:51.508Z,46.51
2023-08-08T14:47:22.454Z,46.52
2023-08-08T14:49:53.569Z,46.66
2023-08-08T14:52:27.289Z,46.56
2023-08-08T14:54:58.283Z,46.48
2023-08-08T14:57:29.386Z,46.58
2023-08-08T15:00:02.261Z,46.59
2023-08-08T15:02:33.328Z,46.43
2023-08-08T15:05:04.455Z,46.41
2023-08-08T15:07:35.281Z,46.26
2023-08-08T15:10:07.206Z,46.26
2023-08-08T15:12:38.442Z,46.15
2023-08-08T15:15:12.272Z,45.97
2023-08-08T15:17:43.678Z,46.10
2023-08-08T15:20:15.226Z,46.03
2023-08-08T15:22:46.367Z,46.11
2023-08-08T15:25:17.384Z,46.02
2023-08-08T15:27:50.389Z,45.98
2023-08-08T15:30:21.401Z,46.08
2023-08-08T15:32:52.211Z,45.99
2023-08-08T15:35:24.123Z,45.95
2023-08-08T15:37:55.781Z,46.09
2023-08-08T15:40:28.176Z,46.02
2023-08-08T15:42:59.366Z,46.08
2023-08-08T15:45:30.474Z,45.94
2023-08-08T15:48:01.556Z,46.06
2023-08-08T15:50:32.763Z,46.07
2023-08-08T15:53:03.875Z,45.95
2023-08-08T15:55:35.678Z,45.99
2023-08-08T15:58:07.444Z,45.94
2023-08-08T16:00:38.557Z,45.85
2023-08-08T16:03:09.557Z,45.98
2023-08-08T16:05:41.213Z,45.91
2023-08-08T16:08:12.152Z,45.67
2023-08-08T16:10:43.060Z,45.80
2023-08-08T16:13:14.900Z,45.85
2023-08-08T16:15:46.003Z,45.76
2023-08-08T16:18:16.894Z,45.72
2023-08-08T16:20:47.787Z,45.71
2023-08-08T16:23:18.663Z,45.64
2023-08-08T16:25:50.795Z,45.85
2023-08-08T16:28:21.997Z,45.72
2023-08-08T16:30:53.067Z,45.81
2023-08-08T16:33:24.186Z,45.51
2023-08-08T16:35:55.277Z,45.52
2023-08-08T16:38:26.690Z,45.62
2023-08-08T16:40:57.737Z,45.49
2023-08-08T16:43:32.550Z,45.54
2023-08-08T16:46:03.429Z,45.66
2023-08-08T16:48:34.557Z,45.52
2023-08-08T16:51:05.695Z,45.35
2023-08-08T16:53:37.169Z,45.16
2023-08-08T16:56:08.194Z,45.35
2023-08-08T16:58:40.550Z,45.12
2023-08-08T17:01:13.382Z,45.13
2023-08-08T17:03:44.538Z,45.09
2023-08-08T17:06:15.480Z,45.17
2023-08-08T17:08:47.248Z,45.09
2023-08-08T17:11:18.458Z,45.02
2023-08-08T17:13:50.574Z,45.26
2023-08-08T17:16:21.629Z,45.33
2023-08-08T17:18:53.795Z,45.34
2023-08-08T17:21:24.892Z,45.30
2023-08-08T17:23:56.067Z,45.46
2023-08-08T17:26:27.418Z,45.49
2023-08-08T17:28:58.549Z,45.42
2023-08-08T17:31:29.765Z,45.70
2023-08-08T17:34:00.759Z,45.61
2023-08-08T17:36:31.944Z,45.64
2023-08-08T17:39:03.271Z,45.67
2023-08-08T17:41:34.364Z,45.79
2023-08-08T17:44:06.924Z,45.93
2023-08-08T17:46:38.857Z,45.97
2023-08-08T17:49:10.145Z,45.99
2023-08-08T17:51:41.160Z,46.05
2023-08-08T17:54:12.191Z,45.93
2023-08-08T17:56:43.351Z,46.07
2023-08-08T17:59:14.387Z,45.96
2023-08-08T18:01:45.960Z,46.06
2023-08-08T18:04:16.959Z,46.04
2023-08-08T18:06:48.137Z,46.17
2023-08-08T18:09:19.277Z,46.05
2023-08-08T18:11:50.411Z,46.12
2023-08-08T18:14:21.744Z,46.22
2023-08-08T18:16:52.799Z,46.25
2023-08-08T18:19:24.296Z,46.26
2023-08-08T18:21:55.632Z,46.30
2023-08-08T18:24:27.352Z,46.11
2023-08-08T18:26:58.549Z,46.16
2023-08-08T18:29:29.384Z,46.15
2023-08-08T18:32:02.665Z,46.33
2023-08-08T18:34:32.355Z,46.35
2023-08-08T18:37:03.466Z,46.50
2023-08-08T18:39:34.537Z,46.42
2023-08-08T18:42:05.543Z,46.37
2023-08-08T18:44:36.768Z,46.47
2023-08-08T18:47:08.156Z,46.55
2023-08-08T18:49:39.261Z,46.39
2023-08-08T18:52:10.656Z,46.49
2023-08-08T18:54:41.676Z,46.57
2023-08-08T18:57:12.638Z,46.59
2023-08-08T18:59:43.874Z,46.49
2023-08-08T19:02:14.800Z,46.57
2023-08-08T19:04:45.657Z,46.58
2023-08-08T19:07:16.623Z,46.62
2023-08-08T19:09:47.764Z,46.83
2023-08-08T19:12:18.757Z,46.69
2023-08-08T19:14:49.622Z,46.82
2023-08-08T19:17:20.547Z,46.57
2023-08-08T19:19:51.428Z,46.59
2023-08-08T19:22:22.510Z,46.79
2023-08-08T19:24:54.043Z,46.64
2023-08-08T19:27:25.335Z,46.59
2023-08-08T19:29:56.355Z,46.27
2023-08-08T19:32:27.452Z,46.75
2023-08-08T19:34:58.524Z,46.56
2023-08-08T19:37:31.494Z,46.70
2023-08-08T19:40:02.710Z,46.58
2023-08-08T19:42:33.656Z,46.38
2023-08-08T19:45:06.541Z,46.59
2023-08-08T19:47:38.132Z,46.57
2023-08-08T19:50:10.571Z,46.43
2023-08-08T19:52:42.873Z,46.36
2023-08-08T19:55:13.943Z,46.46
2023-08-08T19:57:44.742Z,46.40
2023-08-08T20:00:17.219Z,46.39
2023-08-08T20:02:48.049Z,46.38
2023-08-08T20:05:19.246Z,46.28
2023-08-08T20:07:50.067Z,46.39
2023-08-08T20:10:21.005Z,46.29
2023-08-08T20:12:52.060Z,46.38
2023-08-08T20:15:23.829Z,46.47
2023-08-08T20:17:54.978Z,46.23
2023-08-08T20:20:26.005Z,46.30
2023-08-08T20:22:56.939Z,46.29
2023-08-08T20:25:27.832Z,46.32
2023-08-08T20:27:58.829Z,46.35
2023-08-08T20:30:29.894Z,46.36
2023-08-08T20:33:01.258Z,46.35
2023-08-08T20:35:32.940Z,46.54
2023-08-08T20:38:04.028Z,46.60
2023-08-08T20:40:34.967Z,46.61
2023-08-08T20:43:06.185Z,46.59
2023-08-08T20:45:36.996Z,46.73
2023-08-08T20:48:08.317Z,46.78
2023-08-08T20:50:39.090Z,46.63
2023-08-08T20:53:14.201Z,46.78
2023-08-08T20:55:45.050Z,46.65
2023-08-08T20:58:15.952Z,46.63
2023-08-08T21:00:46.954Z,46.64
2023-08-08T21:03:17.980Z,46.47
2023-08-08T21:05:49.516Z,46.58
2023-08-08T21:08:20.658Z,46.61
2023-08-08T21:10:51.437Z,46.56
2023-08-08T21:13:22.229Z,46.60
2023-08-08T21:15:53.203Z,46.65
2023-08-08T21:18:24.632Z,46.68
2023-08-08T21:20:56.120Z,46.62
2023-08-08T21:23:27.017Z,46.59
2023-08-08T21:25:58.110Z,46.59
2023-08-08T21:28:30.487Z,46.63
2023-08-08T21:31:01.542Z,46.49
2023-08-08T21:33:32.273Z,46.62
2023-08-08T21:36:03.178Z,46.73
2023-08-08T21:38:34.525Z,46.79
2023-08-08T21:41:05.503Z,46.65
2023-08-08T21:43:37.532Z,46.63
2023-08-08T21:46:08.320Z,46.68
2023-08-08T21:48:39.255Z,46.60
2023-08-08T21:51:11.636Z,46.67
2023-08-08T21:53:42.680Z,46.62
2023-08-08T21:56:13.498Z,46.63
2023-08-08T21:58:44.940Z,46.62
2023-08-08T22:01:15.789Z,46.66
2023-08-08T22:03:47.855Z,46.58
2023-08-08T22:06:18.915Z,46.60
2023-08-08T22:08:50.255Z,46.70
2023-08-08T22:11:21.012Z,46.65
2023-08-08T22:13:51.766Z,46.73
2023-08-08T22:16:22.688Z,46.78
2023-08-08T22:18:53.582Z,46.66
2023-08-08T22:21:24.334Z,46.67
2023-08-08T22:23:55.365Z,46.78
2023-08-08T22:26:26.330Z,46.71
2023-08-08T22:28:57.021Z,46.79
2023-08-08T22:31:27.800Z,46.85
2023-08-08T22:33:59.189Z,46.88
2023-08-08T22:36:32.154Z,46.92
2023-08-08T22:39:03.607Z,46.84
2023-08-08T22:41:34.364Z,46.80
2023-08-08T22:44:05.482Z,47.00
2023-08-08T22:46:38.478Z,46.80
2023-08-08T22:49:10.048Z,46.95
2023-08-08T22:51:40.757Z,46.95
2023-08-08T22:54:11.547Z,47.11
2023-08-08T22:56:42.320Z,47.04
2023-08-08T22:59:13.088Z,47.14
2023-08-08T23:01:44.065Z,47.04
2023-08-08T23:04:14.856Z,47.08
2023-08-08T23:06:45.708Z,47.02
2023-08-08T23:09:16.424Z,47.01
2023-08-08T23:11:47.058Z,46.93
2023-08-08T23:14:17.706Z,46.93
2023-08-08T23:16:48.918Z,46.98
2023-08-08T23:19:19.910Z,46.98
2023-08-08T23:21:50.605Z,47.18
2023-08-08T23:24:21.289Z,47.09
2023-08-08T23:26:52.337Z,47.17
2023-08-08T23:29:23.914Z,47.09
2023-08-08T23:31:54.936Z,47.31
2023-08-08T23:34:26.088Z,47.11
2023-08-08T23:36:57.211Z,47.13
2023-08-08T23:39:28.718Z,47.30
2023-08-08T23:41:59.627Z,47.28
2023-08-08T23:44:30.667Z,47.35
2023-08-08T23:47:01.747Z,47.26
2023-08-08T23:49:32.668Z,47.29
2023-08-08T23:52:03.431Z,47.38
2023-08-08T23:54:34.374Z,47.42
2023-08-08T23:57:05.814Z,47.49
2023-08-08T23:59:36.860Z,47.63
